Tenants Harbor, Maine
Current Conditions -  °F | °C
As of 8:55 AM on Saturday 25 Oct 2014 (Local Time) from KRKD Reporting Station
Few Clouds Few Clouds  
Wind Chill: 45°   Ceiling: Unl
Heat Index: 45°   Visibility: 10mi
Dew Point: 39°   Wind: 3mph
Humidity: 81%   Direction: 220°SW
Pressure: 29.68"   Gusts: NA
Location:  43.97°N, 69.21°W
Report Text: KRKD 251255Z AUTO 22003KT 10SM FEW065 07/04 A2968 RMK AO1
Loading
Personal Weather Stations






























Interactive Weather Map
Tropical Storm Tracking
New forecast layout! Learn more

10-Day Weather Forecast

Advertisements
Track Severe Weather on mobile